sensor_id;sensor_type;location;lat;lon;timestamp;pressure;altitude;pressure_sealevel;temperature;humidity
36932;BME280;22847;42.654;23.370;2024-01-15T00:01:16;94107.38;;;2.58;59.54
36932;BME280;22847;42.654;23.370;2024-01-15T00:03:42;94109.53;;;2.76;59.82
36932;BME280;22847;42.654;23.370;2024-01-15T00:06:07;94089.59;;;2.55;59.25
36932;BME280;22847;42.654;23.370;2024-01-15T00:08:33;94097.72;;;2.73;57.77
36932;BME280;22847;42.654;23.370;2024-01-15T00:10:58;93916.31;;;1.52;58.35
36932;BME280;22847;42.654;23.370;2024-01-15T00:13:23;94114.44;;;2.67;57.85
36932;BME280;22847;42.654;23.370;2024-01-15T00:15:49;94097.16;;;2.46;63.64
36932;BME280;22847;42.654;23.370;2024-01-15T00:18:14;94099.31;;;2.63;61.88
36932;BME280;22847;42.654;23.370;2024-01-15T00:20:40;94084.53;;;2.43;59.30
36932;BME280;22847;42.654;23.370;2024-01-15T00:23:06;94052.50;;;2.23;58.86
36932;BME280;22847;42.654;23.370;2024-01-15T00:25:31;94074.47;;;2.16;61.94
36932;BME280;22847;42.654;23.370;2024-01-15T00:27:57;93926.63;;;1.39;61.30
36932;BME280;22847;42.654;23.370;2024-01-15T00:30:22;94078.28;;;2.34;59.00
36932;BME280;22847;42.654;23.370;2024-01-15T00:32:47;94117.34;;;2.39;59.54
36932;BME280;22847;42.654;23.370;2024-01-15T00:35:13;94054.31;;;2.10;59.93
36932;BME280;22847;42.654;23.370;2024-01-15T00:37:47;94067.72;;;2.02;59.41
36932;BME280;22847;42.654;23.370;2024-01-15T00:40:13;94100.28;;;2.14;59.20
36932;BME280;22847;42.654;23.370;2024-01-15T00:42:38;94089.38;;;2.11;62.23
36932;BME280;22847;42.654;23.370;2024-01-15T00:45:04;94078.94;;;2.01;59.96
36932;BME280;22847;42.654;23.370;2024-01-15T00:47:30;94045.25;;;1.93;59.10
36932;BME280;22847;42.654;23.370;2024-01-15T00:49:56;94087.84;;;2.08;60.13
36932;BME280;22847;42.654;23.370;2024-01-15T00:52:21;94099.03;;;2.07;59.19
36932;BME280;22847;42.654;23.370;2024-01-15T00:54:47;94089.97;;;2.14;60.18
36932;BME280;22847;42.654;23.370;2024-01-15T00:57:12;94057.25;;;1.93;58.61
36932;BME280;22847;42.654;23.370;2024-01-15T00:59:37;94116.53;;;2.15;57.46
36932;BME280;22847;42.654;23.370;2024-01-15T01:02:03;93923.75;;;1.07;57.34
36932;BME280;22847;42.654;23.370;2024-01-15T01:04:28;93959.34;;;1.24;57.26
36932;BME280;22847;42.654;23.370;2024-01-15T01:06:54;94117.34;;;2.03;57.04
36932;BME280;22847;42.654;23.370;2024-01-15T01:09:19;94097.63;;;2.03;57.73
36932;BME280;22847;42.654;23.370;2024-01-15T01:11:45;94083.00;;;1.80;57.69
36932;BME280;22847;42.654;23.370;2024-01-15T01:14:10;93964.38;;;1.13;57.75
36932;BME280;22847;42.654;23.370;2024-01-15T01:16:36;94033.53;;;1.53;57.80
36932;BME280;22847;42.654;23.370;2024-01-15T01:19:05;93912.31;;;0.75;57.61
36932;BME280;22847;42.654;23.370;2024-01-15T01:21:31;93907.88;;;0.77;57.56
36932;BME280;22847;42.654;23.370;2024-01-15T01:23:57;94091.28;;;1.96;57.47
36932;BME280;22847;42.654;23.370;2024-01-15T01:26:22;94090.56;;;1.94;57.49
36932;BME280;22847;42.654;23.370;2024-01-15T01:28:47;93917.63;;;0.84;57.81
36932;BME280;22847;42.654;23.370;2024-01-15T01:31:13;94033.31;;;1.56;58.01
36932;BME280;22847;42.654;23.370;2024-01-15T01:33:39;93906.84;;;0.92;58.08
36932;BME280;22847;42.654;23.370;2024-01-15T01:36:09;93895.00;;;0.15;60.58
36932;BME280;22847;42.654;23.370;2024-01-15T01:38:35;93883.50;;;0.33;60.25
36932;BME280;22847;42.654;23.370;2024-01-15T01:41:01;94081.88;;;1.71;59.70
36932;BME280;22847;42.654;23.370;2024-01-15T01:43:27;94077.25;;;1.76;59.21
36932;BME280;22847;42.654;23.370;2024-01-15T01:45:52;94058.56;;;1.74;58.80
36932;BME280;22847;42.654;23.370;2024-01-15T01:48:20;93934.78;;;0.84;58.91
36932;BME280;22847;42.654;23.370;2024-01-15T01:50:46;94084.22;;;1.87;59.04
36932;BME280;22847;42.654;23.370;2024-01-15T01:53:11;94054.47;;;0.45;62.98
36932;BME280;22847;42.654;23.370;2024-01-15T01:55:38;94078.66;;;1.19;62.72
36932;BME280;22847;42.654;23.370;2024-01-15T01:58:03;93933.34;;;0.55;61.82
36932;BME280;22847;42.654;23.370;2024-01-15T02:00:30;94041.44;;;1.50;61.35
36932;BME280;22847;42.654;23.370;2024-01-15T02:02:56;93977.22;;;1.26;60.72
36932;BME280;22847;42.654;23.370;2024-01-15T02:05:22;94043.66;;;1.67;60.90
36932;BME280;22847;42.654;23.370;2024-01-15T02:07:48;93959.25;;;1.13;60.56
36932;BME280;22847;42.654;23.370;2024-01-15T02:10:14;93886.44;;;0.78;60.42
36932;BME280;22847;42.654;23.370;2024-01-15T02:12:39;94020.19;;;1.48;60.95
36932;BME280;22847;42.654;23.370;2024-01-15T02:15:05;94072.69;;;1.31;62.62
36932;BME280;22847;42.654;23.370;2024-01-15T02:17:31;94043.13;;;1.38;61.58
36932;BME280;22847;42.654;23.370;2024-01-15T02:19:56;94029.59;;;1.60;61.41
36932;BME280;22847;42.654;23.370;2024-01-15T02:22:22;94034.22;;;1.55;61.15
36932;BME280;22847;42.654;23.370;2024-01-15T02:24:47;93909.91;;;0.97;61.01
36932;BME280;22847;42.654;23.370;2024-01-15T02:27:13;94022.13;;;1.57;60.98
36932;BME280;22847;42.654;23.370;2024-01-15T02:29:39;93999.88;;;1.68;60.27
36932;BME280;22847;42.654;23.370;2024-01-15T02:32:05;93837.50;;;0.07;61.96
36932;BME280;22847;42.654;23.370;2024-01-15T02:34:34;93787.50;;;-1.16;66.03
36932;BME280;22847;42.654;23.370;2024-01-15T02:37:00;93882.06;;;-0.61;65.90
36932;BME280;22847;42.654;23.370;2024-01-15T02:39:25;93826.91;;;-0.39;64.28
36932;BME280;22847;42.654;23.370;2024-01-15T02:41:51;93992.84;;;1.10;62.59
36932;BME280;22847;42.654;23.370;2024-01-15T02:44:16;93988.16;;;1.28;61.30
36932;BME280;22847;42.654;23.370;2024-01-15T02:46:44;93953.28;;;1.49;60.61
36932;BME280;22847;42.654;23.370;2024-01-15T02:49:09;93809.59;;;0.64;59.76
36932;BME280;22847;42.654;23.370;2024-01-15T02:54:57;93985.09;;;1.59;59.60
36932;BME280;22847;42.654;23.370;2024-01-15T03:00:44;93819.69;;;0.67;59.63
36932;BME280;22847;42.654;23.370;2024-01-15T03:03:11;93978.00;;;1.63;60.27
36932;BME280;22847;42.654;23.370;2024-01-15T03:05:37;93987.09;;;1.79;59.62
36932;BME280;22847;42.654;23.370;2024-01-15T03:08:02;93963.25;;;1.77;59.80
36932;BME280;22847;42.654;23.370;2024-01-15T03:10:28;94004.47;;;2.00;59.31
36932;BME280;22847;42.654;23.370;2024-01-15T03:12:53;93981.00;;;2.04;58.99
36932;BME280;22847;42.654;23.370;2024-01-15T03:15:19;93956.41;;;1.89;59.27
36932;BME280;22847;42.654;23.370;2024-01-15T03:18:09;93971.06;;;2.00;58.85
36932;BME280;22847;42.654;23.370;2024-01-15T03:20:42;93964.72;;;1.93;58.87
36932;BME280;22847;42.654;23.370;2024-01-15T03:23:08;93782.31;;;0.75;59.34
36932;BME280;22847;42.654;23.370;2024-01-15T03:25:33;93880.09;;;1.31;59.16
36932;BME280;22847;42.654;23.370;2024-01-15T03:27:59;93977.78;;;1.90;59.41
36932;BME280;22847;42.654;23.370;2024-01-15T03:30:24;93796.41;;;0.57;59.88
36932;BME280;22847;42.654;23.370;2024-01-15T03:32:49;93990.94;;;1.38;61.11
36932;BME280;22847;42.654;23.370;2024-01-15T03:35:15;93979.41;;;0.94;61.62
36932;BME280;22847;42.654;23.370;2024-01-15T03:37:41;93961.06;;;0.62;64.33
36932;BME280;22847;42.654;23.370;2024-01-15T03:40:07;93809.47;;;0.41;62.33
36932;BME280;22847;42.654;23.370;2024-01-15T03:42:32;93965.16;;;1.26;61.72
36932;BME280;22847;42.654;23.370;2024-01-15T03:44:58;93782.69;;;0.45;61.35
36932;BME280;22847;42.654;23.370;2024-01-15T03:47:24;93692.44;;;-0.70;63.54
36932;BME280;22847;42.654;23.370;2024-01-15T03:49:49;93844.13;;;0.34;63.08
36932;BME280;22847;42.654;23.370;2024-01-15T03:52:15;93803.53;;;0.28;61.82
36932;BME280;22847;42.654;23.370;2024-01-15T03:54:40;93982.66;;;1.21;61.83
36932;BME280;22847;42.654;23.370;2024-01-15T03:57:06;93805.00;;;0.07;62.83
36932;BME280;22847;42.654;23.370;2024-01-15T03:59:31;93841.66;;;0.58;62.04
36932;BME280;22847;42.654;23.370;2024-01-15T04:01:57;93952.53;;;1.23;61.10
36932;BME280;22847;42.654;23.370;2024-01-15T04:04:22;93978.00;;;1.26;61.13
36932;BME280;22847;42.654;23.370;2024-01-15T04:06:48;93962.31;;;1.18;61.12
36932;BME280;22847;42.654;23.370;2024-01-15T04:09:13;93940.84;;;1.19;61.24
36932;BME280;22847;42.654;23.370;2024-01-15T04:11:39;93791.00;;;0.36;61.07
36932;BME280;22847;42.654;23.370;2024-01-15T04:14:05;93933.66;;;1.24;61.39
36932;BME280;22847;42.654;23.370;2024-01-15T04:16:30;93912.34;;;1.11;61.46
36932;BME280;22847;42.654;23.370;2024-01-15T04:18:56;93943.75;;;1.15;61.72
36932;BME280;22847;42.654;23.370;2024-01-15T04:21:21;93952.06;;;1.06;62.42
36932;BME280;22847;42.654;23.370;2024-01-15T04:23:47;93942.50;;;1.20;62.15
36932;BME280;22847;42.654;23.370;2024-01-15T04:26:12;93800.16;;;0.40;61.30
36932;BME280;22847;42.654;23.370;2024-01-15T04:28:38;93893.56;;;0.62;62.27
36932;BME280;22847;42.654;23.370;2024-01-15T04:31:03;93968.00;;;0.98;62.73
36932;BME280;22847;42.654;23.370;2024-01-15T04:33:29;93758.78;;;-0.04;62.42
36932;BME280;22847;42.654;23.370;2024-01-15T04:35:54;93850.47;;;0.54;62.08
36932;BME280;22847;42.654;23.370;2024-01-15T04:38:20;93892.81;;;0.85;62.34
36932;BME280;22847;42.654;23.370;2024-01-15T04:40:45;93954.19;;;1.24;62.29
36932;BME280;22847;42.654;23.370;2024-01-15T04:43:10;93770.84;;;0.19;62.05
36932;BME280;22847;42.654;23.370;2024-01-15T04:45:36;93889.38;;;0.97;61.89
36932;BME280;22847;42.654;23.370;2024-01-15T04:48:01;93939.94;;;1.20;62.39
36932;BME280;22847;42.654;23.370;2024-01-15T04:50:28;93864.94;;;0.92;62.30
36932;BME280;22847;42.654;23.370;2024-01-15T04:52:53;93789.97;;;0.52;62.10
36932;BME280;22847;42.654;23.370;2024-01-15T04:55:19;93937.00;;;1.38;61.97
36932;BME280;22847;42.654;23.370;2024-01-15T04:57:44;93927.00;;;1.46;61.84
36932;BME280;22847;42.654;23.370;2024-01-15T05:00:10;93930.06;;;1.51;61.71
36932;BME280;22847;42.654;23.370;2024-01-15T05:02:36;93763.72;;;0.48;61.53
36932;BME280;22847;42.654;23.370;2024-01-15T05:05:01;93878.09;;;1.23;61.55
36932;BME280;22847;42.654;23.370;2024-01-15T05:07:27;93933.56;;;1.50;61.15
36932;BME280;22847;42.654;23.370;2024-01-15T05:09:52;93900.19;;;1.26;61.31
36932;BME280;22847;42.654;23.370;2024-01-15T05:12:18;93760.81;;;0.53;61.62
36932;BME280;22847;42.654;23.370;2024-01-15T05:14:43;93912.06;;;1.03;62.95
36932;BME280;22847;42.654;23.370;2024-01-15T05:17:09;93910.00;;;0.96;64.25
36932;BME280;22847;42.654;23.370;2024-01-15T05:19:34;93716.56;;;-0.11;63.94
36932;BME280;22847;42.654;23.370;2024-01-15T05:22:00;93906.84;;;1.28;62.87
36932;BME280;22847;42.654;23.370;2024-01-15T05:24:26;93735.81;;;0.07;62.87
36932;BME280;22847;42.654;23.370;2024-01-15T05:26:52;93760.72;;;-0.08;64.22
36932;BME280;22847;42.654;23.370;2024-01-15T05:29:17;93871.00;;;0.90;63.67
36932;BME280;22847;42.654;23.370;2024-01-15T05:31:43;93922.34;;;1.27;62.65
36932;BME280;22847;42.654;23.370;2024-01-15T05:34:09;93743.09;;;-0.63;68.96
36932;BME280;22847;42.654;23.370;2024-01-15T05:36:34;93762.47;;;-0.21;65.73
36932;BME280;22847;42.654;23.370;2024-01-15T05:39:00;93757.22;;;0.06;63.86
36932;BME280;22847;42.654;23.370;2024-01-15T05:41:25;93815.38;;;0.55;63.44
36932;BME280;22847;42.654;23.370;2024-01-15T05:43:51;93897.03;;;1.10;62.62
36932;BME280;22847;42.654;23.370;2024-01-15T05:46:17;93914.06;;;1.11;62.31
36932;BME280;22847;42.654;23.370;2024-01-15T05:48:42;93877.03;;;1.02;62.26
36932;BME280;22847;42.654;23.370;2024-01-15T05:51:08;93728.72;;;0.11;62.51
36932;BME280;22847;42.654;23.370;2024-01-15T05:53:33;93855.09;;;0.49;63.90
36932;BME280;22847;42.654;23.370;2024-01-15T05:55:59;93901.31;;;0.85;63.66
36932;BME280;22847;42.654;23.370;2024-01-15T05:58:26;93867.41;;;0.93;63.40
36932;BME280;22847;42.654;23.370;2024-01-15T06:00:51;93879.78;;;1.12;62.75
36932;BME280;22847;42.654;23.370;2024-01-15T06:03:17;93860.00;;;1.01;62.60
36932;BME280;22847;42.654;23.370;2024-01-15T06:05:42;93760.75;;;0.41;62.52
36932;BME280;22847;42.654;23.370;2024-01-15T06:08:08;93748.56;;;0.45;62.43
36932;BME280;22847;42.654;23.370;2024-01-15T06:10:33;93922.19;;;1.41;62.43
36932;BME280;22847;42.654;23.370;2024-01-15T06:12:59;93912.88;;;1.27;62.21
36932;BME280;22847;42.654;23.370;2024-01-15T06:15:24;93713.78;;;0.41;61.89
36932;BME280;22847;42.654;23.370;2024-01-15T06:17:50;93836.41;;;1.20;62.00
36932;BME280;22847;42.654;23.370;2024-01-15T06:20:15;93810.25;;;0.55;63.28
36932;BME280;22847;42.654;23.370;2024-01-15T06:22:41;93896.84;;;0.13;67.65
36932;BME280;22847;42.654;23.370;2024-01-15T06:25:07;93913.28;;;0.98;65.69
36932;BME280;22847;42.654;23.370;2024-01-15T06:27:33;93752.34;;;0.76;64.00
36932;BME280;22847;42.654;23.370;2024-01-15T06:29:58;93880.44;;;2.20;61.19
36932;BME280;22847;42.654;23.370;2024-01-15T06:32:24;93873.31;;;2.35;60.71
36932;BME280;22847;42.654;23.370;2024-01-15T06:34:49;93863.75;;;2.37;59.81
36932;BME280;22847;42.654;23.370;2024-01-15T06:37:15;93778.13;;;1.79;60.08
36932;BME280;22847;42.654;23.370;2024-01-15T06:39:40;93731.72;;;1.58;59.15
36932;BME280;22847;42.654;23.370;2024-01-15T06:42:06;93892.81;;;3.37;58.62
36932;BME280;22847;42.654;23.370;2024-01-15T06:44:31;93765.06;;;4.18;53.58
36932;BME280;22847;42.654;23.370;2024-01-15T06:46:57;93724.72;;;4.57;51.26
36932;BME280;22847;42.654;23.370;2024-01-15T06:49:30;93902.34;;;5.43;50.56
36932;BME280;22847;42.654;23.370;2024-01-15T06:51:56;93733.72;;;4.22;51.35
36932;BME280;22847;42.654;23.370;2024-01-15T06:54:21;93743.81;;;4.04;52.07
36932;BME280;22847;42.654;23.370;2024-01-15T06:56:47;93786.22;;;3.91;52.51
36932;BME280;22847;42.654;23.370;2024-01-15T06:59:12;93899.81;;;4.31;53.50
36932;BME280;22847;42.654;23.370;2024-01-15T07:01:38;93818.88;;;3.49;54.00
36932;BME280;22847;42.654;23.370;2024-01-15T07:04:03;93746.53;;;2.77;55.84
36932;BME280;22847;42.654;23.370;2024-01-15T07:06:29;93865.78;;;3.21;56.60
36932;BME280;22847;42.654;23.370;2024-01-15T07:08:56;93879.63;;;3.08;57.24
36932;BME280;22847;42.654;23.370;2024-01-15T07:11:21;93894.38;;;3.18;57.99
36932;BME280;22847;42.654;23.370;2024-01-15T07:13:47;93904.41;;;3.21;58.13
36932;BME280;22847;42.654;23.370;2024-01-15T07:16:12;93896.03;;;2.96;58.44
36932;BME280;22847;42.654;23.370;2024-01-15T07:18:38;93920.75;;;2.88;59.17
36932;BME280;22847;42.654;23.370;2024-01-15T07:21:03;93817.44;;;2.48;58.70
36932;BME280;22847;42.654;23.370;2024-01-15T07:23:31;93877.31;;;2.94;58.47
36932;BME280;22847;42.654;23.370;2024-01-15T07:25:56;93789.72;;;2.40;58.49
36932;BME280;22847;42.654;23.370;2024-01-15T07:28:22;93847.50;;;2.69;58.62
36932;BME280;22847;42.654;23.370;2024-01-15T07:30:47;93880.13;;;2.91;58.78
36932;BME280;22847;42.654;23.370;2024-01-15T07:33:12;93870.28;;;2.85;58.80
36932;BME280;22847;42.654;23.370;2024-01-15T07:35:38;93891.34;;;3.01;58.90
36932;BME280;22847;42.654;23.370;2024-01-15T07:38:04;93718.78;;;2.04;58.68
36932;BME280;22847;42.654;23.370;2024-01-15T07:40:29;93875.94;;;2.79;58.80
36932;BME280;22847;42.654;23.370;2024-01-15T07:42:55;93874.84;;;2.70;59.20
36932;BME280;22847;42.654;23.370;2024-01-15T07:45:20;93894.03;;;2.33;60.73
36932;BME280;22847;42.654;23.370;2024-01-15T07:47:46;93755.44;;;1.73;60.64
36932;BME280;22847;42.654;23.370;2024-01-15T07:50:11;93789.38;;;2.11;60.53
36932;BME280;22847;42.654;23.370;2024-01-15T07:52:37;93923.19;;;2.78;60.55
36932;BME280;22847;42.654;23.370;2024-01-15T07:55:02;93889.66;;;2.11;61.40
36932;BME280;22847;42.654;23.370;2024-01-15T07:57:30;93891.97;;;1.68;63.87
36932;BME280;22847;42.654;23.370;2024-01-15T07:59:56;93915.41;;;2.34;63.33
36932;BME280;22847;42.654;23.370;2024-01-15T08:02:21;93892.97;;;2.36;62.13
36932;BME280;22847;42.654;23.370;2024-01-15T08:04:47;93701.03;;;-0.46;68.42
36932;BME280;22847;42.654;23.370;2024-01-15T08:07:12;93847.25;;;1.00;67.12
36932;BME280;22847;42.654;23.370;2024-01-15T08:09:38;93802.53;;;0.67;66.01
36932;BME280;22847;42.654;23.370;2024-01-15T08:12:04;93912.69;;;1.54;64.64
36932;BME280;22847;42.654;23.370;2024-01-15T08:14:31;93885.44;;;2.10;62.74
36932;BME280;22847;42.654;23.370;2024-01-15T08:16:57;93902.72;;;1.97;62.49
36932;BME280;22847;42.654;23.370;2024-01-15T08:19:22;93874.13;;;2.24;61.00
36932;BME280;22847;42.654;23.370;2024-01-15T08:21:48;93889.44;;;1.79;62.46
36932;BME280;22847;42.654;23.370;2024-01-15T08:24:14;93745.66;;;1.32;61.21
36932;BME280;22847;42.654;23.370;2024-01-15T08:26:40;93928.22;;;2.68;59.59
36932;BME280;22847;42.654;23.370;2024-01-15T08:29:05;93867.47;;;2.88;58.33
36932;BME280;22847;42.654;23.370;2024-01-15T08:31:31;93793.13;;;2.41;58.70
36932;BME280;22847;42.654;23.370;2024-01-15T08:33:56;93866.44;;;2.46;62.46
36932;BME280;22847;42.654;23.370;2024-01-15T08:36:22;93879.84;;;3.28;61.04
36932;BME280;22847;42.654;23.370;2024-01-15T08:38:49;93839.94;;;3.54;58.64
36932;BME280;22847;42.654;23.370;2024-01-15T08:41:14;93871.19;;;4.13;57.68
36932;BME280;22847;42.654;23.370;2024-01-15T08:43:40;93837.94;;;4.40;57.18
36932;BME280;22847;42.654;23.370;2024-01-15T08:46:05;93758.16;;;4.58;57.21
36932;BME280;22847;42.654;23.370;2024-01-15T08:48:31;93841.56;;;5.58;54.98
36932;BME280;22847;42.654;23.370;2024-01-15T08:50:57;93813.81;;;6.08;53.59
36932;BME280;22847;42.654;23.370;2024-01-15T08:53:22;93718.13;;;5.69;52.87
36932;BME280;22847;42.654;23.370;2024-01-15T08:55:48;93827.69;;;7.00;50.14
36932;BME280;22847;42.654;23.370;2024-01-15T08:58:14;93857.53;;;7.31;49.52
36932;BME280;22847;42.654;23.370;2024-01-15T09:00:40;93706.59;;;6.75;48.60
36932;BME280;22847;42.654;23.370;2024-01-15T09:03:05;93837.44;;;7.96;48.61
36932;BME280;22847;42.654;23.370;2024-01-15T09:05:31;93833.63;;;8.26;46.73
36932;BME280;22847;42.654;23.370;2024-01-15T09:07:57;93793.47;;;8.64;46.20
36932;BME280;22847;42.654;23.370;2024-01-15T09:10:23;93784.28;;;9.19;44.09
36932;BME280;22847;42.654;23.370;2024-01-15T09:12:49;93676.59;;;8.88;43.34
36932;BME280;22847;42.654;23.370;2024-01-15T09:15:14;93774.53;;;9.21;42.99
36932;BME280;22847;42.654;23.370;2024-01-15T09:17:40;93792.72;;;9.13;42.39
36932;BME280;22847;42.654;23.370;2024-01-15T09:20:06;93631.06;;;7.40;43.18
36932;BME280;22847;42.654;23.370;2024-01-15T09:22:32;93673.38;;;6.88;45.09
36932;BME280;22847;42.654;23.370;2024-01-15T09:24:58;93627.28;;;6.46;45.69
36932;BME280;22847;42.654;23.370;2024-01-15T09:27:24;93742.13;;;7.27;49.16
36932;BME280;22847;42.654;23.370;2024-01-15T09:29:52;93738.38;;;6.94;47.59
36932;BME280;22847;42.654;23.370;2024-01-15T09:32:17;93737.09;;;6.81;51.90
36932;BME280;22847;42.654;23.370;2024-01-15T09:34:43;93716.75;;;6.58;51.66
36932;BME280;22847;42.654;23.370;2024-01-15T09:37:09;93710.97;;;6.47;49.18
36932;BME280;22847;42.654;23.370;2024-01-15T09:39:34;93762.66;;;6.66;48.89
36932;BME280;22847;42.654;23.370;2024-01-15T09:42:00;93742.56;;;6.50;51.49
36932;BME280;22847;42.654;23.370;2024-01-15T09:44:27;93758.72;;;6.35;49.75
36932;BME280;22847;42.654;23.370;2024-01-15T09:46:53;93626.31;;;5.46;50.02
36932;BME280;22847;42.654;23.370;2024-01-15T09:49:19;93728.38;;;6.17;49.59
36932;BME280;22847;42.654;23.370;2024-01-15T09:51:45;93736.44;;;6.05;49.35
36932;BME280;22847;42.654;23.370;2024-01-15T09:54:12;93689.69;;;4.83;52.37
36932;BME280;22847;42.654;23.370;2024-01-15T09:56:39;93685.34;;;4.83;52.07
36932;BME280;22847;42.654;23.370;2024-01-15T09:59:05;93678.03;;;4.88;51.85
36932;BME280;22847;42.654;23.370;2024-01-15T10:01:32;93734.31;;;3.84;57.02
36932;BME280;22847;42.654;23.370;2024-01-15T10:03:58;93655.16;;;3.96;54.80
36932;BME280;22847;42.654;23.370;2024-01-15T10:06:27;93609.38;;;3.88;54.15
36932;BME280;22847;42.654;23.370;2024-01-15T10:08:53;93659.94;;;3.49;55.56
36932;BME280;22847;42.654;23.370;2024-01-15T10:11:19;93735.31;;;3.93;56.07
36932;BME280;22847;42.654;23.370;2024-01-15T10:13:46;93554.91;;;3.11;54.41
36932;BME280;22847;42.654;23.370;2024-01-15T10:16:11;93719.13;;;4.12;54.51
36932;BME280;22847;42.654;23.370;2024-01-15T10:18:37;93520.88;;;3.08;54.03
36932;BME280;22847;42.654;23.370;2024-01-15T10:21:06;93551.16;;;2.95;55.34
36932;BME280;22847;42.654;23.370;2024-01-15T10:23:32;93665.44;;;3.66;55.78
36932;BME280;22847;42.654;23.370;2024-01-15T10:25:58;93680.00;;;4.07;56.53
36932;BME280;22847;42.654;23.370;2024-01-15T10:28:26;93650.19;;;4.14;55.05
36932;BME280;22847;42.654;23.370;2024-01-15T10:30:54;93680.94;;;4.36;54.32
36932;BME280;22847;42.654;23.370;2024-01-15T10:33:23;93573.81;;;3.92;53.51
36932;BME280;22847;42.654;23.370;2024-01-15T10:35:58;93629.47;;;4.73;53.24
36932;BME280;22847;42.654;23.370;2024-01-15T10:38:24;93635.06;;;4.87;52.45
36932;BME280;22847;42.654;23.370;2024-01-15T10:40:54;93614.53;;;4.95;53.38
36932;BME280;22847;42.654;23.370;2024-01-15T10:43:21;93660.91;;;5.07;52.93
36932;BME280;22847;42.654;23.370;2024-01-15T10:45:48;93661.97;;;5.14;52.16
36932;BME280;22847;42.654;23.370;2024-01-15T10:48:16;93523.25;;;4.58;52.21
36932;BME280;22847;42.654;23.370;2024-01-15T10:50:43;93629.72;;;5.37;50.64
36932;BME280;22847;42.654;23.370;2024-01-15T10:53:11;93554.22;;;4.58;51.26
36932;BME280;22847;42.654;23.370;2024-01-15T10:55:38;93638.34;;;5.09;51.23
36932;BME280;22847;42.654;23.370;2024-01-15T10:58:05;93658.66;;;5.60;50.04
36932;BME280;22847;42.654;23.370;2024-01-15T11:00:33;93599.44;;;5.10;50.28
36932;BME280;22847;42.654;23.370;2024-01-15T11:03:01;93614.81;;;5.21;50.41
36932;BME280;22847;42.654;23.370;2024-01-15T11:05:27;93607.34;;;5.09;50.65
36932;BME280;22847;42.654;23.370;2024-01-15T11:07:56;93623.38;;;5.03;51.83
36932;BME280;22847;42.654;23.370;2024-01-15T11:10:44;93617.72;;;5.46;50.79
36932;BME280;22847;42.654;23.370;2024-01-15T11:16:00;93565.59;;;5.13;50.32
36932;BME280;22847;42.654;23.370;2024-01-15T11:18:31;93567.53;;;5.48;53.13
36932;BME280;22847;42.654;23.370;2024-01-15T11:23:47;93607.81;;;5.41;51.64
36932;BME280;22847;42.654;23.370;2024-01-15T11:26:46;93582.78;;;5.88;51.26
36932;BME280;22847;42.654;23.370;2024-01-15T11:34:21;93589.03;;;6.40;49.51
36932;BME280;22847;42.654;23.370;2024-01-15T11:37:07;93604.34;;;6.34;50.09
36932;BME280;22847;42.654;23.370;2024-01-15T11:42:03;93572.63;;;6.49;49.69
36932;BME280;22847;42.654;23.370;2024-01-15T11:44:31;93589.78;;;6.50;49.82
36932;BME280;22847;42.654;23.370;2024-01-15T11:47:02;93561.00;;;6.53;49.54
36932;BME280;22847;42.654;23.370;2024-01-15T11:52:21;93596.78;;;6.40;49.90
36932;BME280;22847;42.654;23.370;2024-01-15T11:55:39;93564.34;;;6.01;51.12
36932;BME280;22847;42.654;23.370;2024-01-15T12:00:06;93569.22;;;6.04;51.34
36932;BME280;22847;42.654;23.370;2024-01-15T12:02:32;93551.28;;;6.02;51.73
36932;BME280;22847;42.654;23.370;2024-01-15T12:04:58;93573.09;;;5.90;51.78
36932;BME280;22847;42.654;23.370;2024-01-15T12:07:23;93572.78;;;6.03;51.58
36932;BME280;22847;42.654;23.370;2024-01-15T12:09:49;93581.91;;;6.24;51.08
36932;BME280;22847;42.654;23.370;2024-01-15T12:12:23;93300.97;;;4.34;51.93
36932;BME280;22847;42.654;23.370;2024-01-15T12:14:50;93518.22;;;5.59;53.07
36932;BME280;22847;42.654;23.370;2024-01-15T12:17:16;93380.50;;;4.48;54.31
36932;BME280;22847;42.654;23.370;2024-01-15T12:19:42;93461.38;;;5.50;53.63
36932;BME280;22847;42.654;23.370;2024-01-15T12:22:08;93548.22;;;6.52;51.78
36932;BME280;22847;42.654;23.370;2024-01-15T12:24:34;93511.91;;;6.61;50.56
36932;BME280;22847;42.654;23.370;2024-01-15T12:27:00;93499.69;;;6.97;51.76
36932;BME280;22847;42.654;23.370;2024-01-15T12:29:26;93529.63;;;6.21;52.08
36932;BME280;22847;42.654;23.370;2024-01-15T12:31:53;93558.28;;;6.10;52.57
36932;BME280;22847;42.654;23.370;2024-01-15T12:34:18;93539.25;;;6.46;51.51
36932;BME280;22847;42.654;23.370;2024-01-15T12:36:46;93576.25;;;6.56;51.40
36932;BME280;22847;42.654;23.370;2024-01-15T12:39:12;93368.16;;;5.78;50.85
36932;BME280;22847;42.654;23.370;2024-01-15T12:41:38;93527.31;;;6.71;51.10
36932;BME280;22847;42.654;23.370;2024-01-15T12:44:04;93404.00;;;5.46;51.91
36932;BME280;22847;42.654;23.370;2024-01-15T12:46:30;93490.59;;;6.32;51.78
36932;BME280;22847;42.654;23.370;2024-01-15T12:48:57;93364.22;;;5.74;51.36
36932;BME280;22847;42.654;23.370;2024-01-15T12:51:26;93486.41;;;6.75;51.35
36932;BME280;22847;42.654;23.370;2024-01-15T12:53:52;93504.88;;;6.97;50.77
36932;BME280;22847;42.654;23.370;2024-01-15T12:56:18;93530.69;;;7.07;50.39
36932;BME280;22847;42.654;23.370;2024-01-15T12:58:43;93495.38;;;7.06;50.19
36932;BME280;22847;42.654;23.370;2024-01-15T13:01:09;93496.25;;;6.89;51.00
36932;BME280;22847;42.654;23.370;2024-01-15T13:03:34;93487.78;;;7.12;50.52
36932;BME280;22847;42.654;23.370;2024-01-15T13:06:00;93484.09;;;7.15;50.16
36932;BME280;22847;42.654;23.370;2024-01-15T13:08:25;93459.38;;;7.03;49.88
36932;BME280;22847;42.654;23.370;2024-01-15T13:10:53;93296.50;;;5.18;51.98
36932;BME280;22847;42.654;23.370;2024-01-15T13:13:22;93485.88;;;6.71;52.01
36932;BME280;22847;42.654;23.370;2024-01-15T13:15:47;93496.25;;;6.89;51.27
36932;BME280;22847;42.654;23.370;2024-01-15T13:18:12;93480.44;;;7.00;51.35
36932;BME280;22847;42.654;23.370;2024-01-15T13:20:38;93460.38;;;6.58;51.59